Aérodrome :
LOGIN :

S'inscrire | Disclaimer

   EN    FR    IT 

 










Légende :    VFR   VFR Marginal   IFR   IFR Intensif   IFR Très Intensif
Visi : 
Plafond : 
>= 8 km
>= 3000ft
5 à 8 km
1000 à 3000 ft
1500m à 5 km
500 à 1000 ft
800 à 1500m
200 à 500 ft
< 800m
< 200 ft
Symboles :   Orages  Brouillard  Fortes neiges  Fortes précipitations  Vent > 20 kt
SIGMETs :   Divers  Orages  Givrage  Turbulence  Onde Orograph.  Cendres Volcan.







- Altitude de l'aérodrome : 776 ft
- Code IATA : RMS


ETAR - Ramstein Air Base

DERNIER METAR :
  • 202044Z 25003KT 4000 -SN BR OVC004 00/00 A2951 RMK AO2A SNE1956RAB1956E02SNB02 CIG 002V004 SLP007 $

METARs EXPIRÉS :
  • 202034Z 24003KT 3600 -SN BR OVC002 00/00 A2951 RMK AO2A SNE1956RAB1956E02SNB02 SLP007 $
  • 202027Z 00000KT 3200 R26/1500 -SN BR OVC002 00/00 A2951 RMK AO2A SNE1956RAB1956E02SNB02 SLP008 $
  • 202020Z 00000KT 3000 R26/1400 -SN BR OVC002 00/00 A2950 RMK AO2A VIS 3000V4400 SNE1956RAB1956E02SNB02 SLP004 $
  • 201929Z 00000KT 1600 BR OVC002 01/00 A2949 RMK VIS 4400 RWY09 VIS 4400 RWY27 SLP000 $
  • 201923Z 00000KT 3200 BR OVC002 01/00 A2949 RMK VIS 4400 RWY09 SLP000 $
  • 201856Z 00000KT 9999 BKN002 OVC009 01/00 A2948 RMK AO2A CIG 002V009 BKN V FEW SLP996 P0002 T00050004 $
  • 201846Z 00000KT 9999 FEW002 BKN009 OVC015 00/00 A2948 RMK AO2A SLP997 $
  • 201836Z 00000KT 9999 BKN010 OVC015 00/00 A2948 RMK AO2A CIG 010V012 CIG 009 RWY08 SLP997 $
  • 201826Z 00000KT 9999 SCT011 BKN016 BKN026 OVC032 00/00 A2948 RMK AO2A CIG 016V026 BKN016 V SCT SLP997 $
  • 201816Z 01003KT 9999 SCT014 SCT019 BKN026 OVC032 00/00 A2947 RMK AO2A CIG 026V032 BKN V SCT SLP994 $
  • 201803Z 00000KT 9999 SCT012 BKN032 00/00 A2947 RMK SLP994 $
  • 201756Z 00000KT 9999 BKN012 BKN032 00/00 A2947 RMK AO2A SNE25RAB25E32 SLP994 P0004 60022 T00030002 10026 20002 57018 $

TAF AMD TAF ETAR
Valide du 20 à 19h jusqu'au 22 à 00h UTC


201928Z 2019/2124 VRB06KT 9999 BKN002 BKN009 OVC030 610307 QNH2946INS
TEMPO 2019/2024 3200 -SN BKN009 OVC030
BECMG 2023/2024 31006KT 9999 BKN020 610208 QNH2954INS
BECMG 2104/2105 31010G15KT 9999 SCT030 QNH2971INS
BECMG 2120/2121 VRB06KT 9000 -RA BKN020 610208 QNH2985INS TX03/2112Z TNM01/2021Z
Pas de NOTAMs connus pour ce terrain.
3 SIGMETs publiés pour la FIR Langen (EDGG) :
 
Turbulence forte
EDGG SIGMET 5 VALID 202100/210000 EDZF
EDGG LANGEN FIR SEV TURB FCST W OF E01015 FL200/280 MOV NE 15KT NC=
Turbulence forte
EDGG SIGMET 4 VALID 201816/202100 EDZF
EDGG LANGEN FIR SEV TURB FCST SW OF LINE N5045 E00800 - N5220 E00705 FL180/300 MOV ENE NC=
Turbulence forte
EDGG SIGMET 3 VALID 201805/202100 EDZF
EDGG LANGEN FIR SEV TURB FCST WI N5048 E00802 - N4755 E00852 - N4736 E00741 - N4900 E00809 - N4911 E00644 - N5025 E00620 - N5025 E00621 - N5048 E00802 FL180/300 MOV ENE NC=



MET'MAP, la Météo Aéronautique d'un coup d'oeil ! - Copyright ORBIFLY Décembre 2007 - Disclaimer

ORBIFLY MET'MAP TEAM :

Programmation & Développement : Alexandra Zaïnal
Conception & Développement : Baudouin d'Aumeries
Co-Programmation & Développement : Marc-Olivier Méhu
Soutien technique & logistique : Manuel Goepfert

Contact : metmap@orbifly.com




SOURCES & CREDITS :

   NOAA